sensor_id;sensor_type;location;lat;lon;timestamp;P1;durP1;ratioP1;P2;durP2;ratioP2
20101;SDS011;10210;52.284;9.892;2023-12-20T00:01:35;12.47;;;5.67;;
20101;SDS011;10210;52.284;9.892;2023-12-20T00:04:01;14.60;;;5.80;;
20101;SDS011;10210;52.284;9.892;2023-12-20T00:06:28;13.73;;;6.10;;
20101;SDS011;10210;52.284;9.892;2023-12-20T00:08:55;14.20;;;6.43;;
20101;SDS011;10210;52.284;9.892;2023-12-20T00:11:20;15.00;;;7.43;;
20101;SDS011;10210;52.284;9.892;2023-12-20T00:13:47;14.13;;;6.37;;
20101;SDS011;10210;52.284;9.892;2023-12-20T00:16:13;15.37;;;6.70;;
20101;SDS011;10210;52.284;9.892;2023-12-20T00:18:38;15.67;;;7.30;;
20101;SDS011;10210;52.284;9.892;2023-12-20T00:21:04;15.37;;;7.00;;
20101;SDS011;10210;52.284;9.892;2023-12-20T00:23:29;14.90;;;6.60;;
20101;SDS011;10210;52.284;9.892;2023-12-20T00:25:55;16.50;;;6.50;;
20101;SDS011;10210;52.284;9.892;2023-12-20T00:28:21;14.37;;;5.93;;
20101;SDS011;10210;52.284;9.892;2023-12-20T00:30:47;15.17;;;5.90;;
20101;SDS011;10210;52.284;9.892;2023-12-20T00:33:13;14.30;;;5.73;;
20101;SDS011;10210;52.284;9.892;2023-12-20T00:35:39;17.07;;;5.70;;
20101;SDS011;10210;52.284;9.892;2023-12-20T00:38:05;14.37;;;5.17;;
20101;SDS011;10210;52.284;9.892;2023-12-20T00:40:31;13.97;;;5.23;;
20101;SDS011;10210;52.284;9.892;2023-12-20T00:42:58;15.83;;;5.70;;
20101;SDS011;10210;52.284;9.892;2023-12-20T00:45:23;12.60;;;4.70;;
20101;SDS011;10210;52.284;9.892;2023-12-20T00:47:49;14.60;;;4.93;;
20101;SDS011;10210;52.284;9.892;2023-12-20T00:50:15;15.17;;;5.47;;
20101;SDS011;10210;52.284;9.892;2023-12-20T00:52:41;14.47;;;5.80;;
20101;SDS011;10210;52.284;9.892;2023-12-20T00:55:06;15.00;;;4.70;;
20101;SDS011;10210;52.284;9.892;2023-12-20T00:57:32;13.10;;;4.73;;
20101;SDS011;10210;52.284;9.892;2023-12-20T00:59:59;14.03;;;4.33;;
20101;SDS011;10210;52.284;9.892;2023-12-20T01:02:24;13.17;;;4.30;;
20101;SDS011;10210;52.284;9.892;2023-12-20T01:04:50;14.47;;;3.27;;
20101;SDS011;10210;52.284;9.892;2023-12-20T01:07:15;11.97;;;3.07;;
20101;SDS011;10210;52.284;9.892;2023-12-20T01:09:41;11.03;;;2.60;;
20101;SDS011;10210;52.284;9.892;2023-12-20T01:12:07;12.73;;;3.03;;
20101;SDS011;10210;52.284;9.892;2023-12-20T01:14:32;13.53;;;3.03;;
20101;SDS011;10210;52.284;9.892;2023-12-20T01:16:59;16.07;;;3.40;;
20101;SDS011;10210;52.284;9.892;2023-12-20T01:19:24;12.40;;;3.10;;
20101;SDS011;10210;52.284;9.892;2023-12-20T01:21:52;10.97;;;3.10;;
20101;SDS011;10210;52.284;9.892;2023-12-20T01:24:17;11.13;;;2.80;;
20101;SDS011;10210;52.284;9.892;2023-12-20T01:26:43;12.27;;;2.83;;
20101;SDS011;10210;52.284;9.892;2023-12-20T01:29:08;10.93;;;3.10;;
20101;SDS011;10210;52.284;9.892;2023-12-20T01:31:34;11.80;;;3.20;;
20101;SDS011;10210;52.284;9.892;2023-12-20T01:34:00;10.37;;;2.80;;
20101;SDS011;10210;52.284;9.892;2023-12-20T01:36:26;10.47;;;2.87;;
20101;SDS011;10210;52.284;9.892;2023-12-20T01:38:52;12.33;;;2.90;;
20101;SDS011;10210;52.284;9.892;2023-12-20T01:41:18;10.77;;;3.10;;
20101;SDS011;10210;52.284;9.892;2023-12-20T01:43:43;13.97;;;3.47;;
20101;SDS011;10210;52.284;9.892;2023-12-20T01:46:09;13.03;;;2.50;;
20101;SDS011;10210;52.284;9.892;2023-12-20T01:48:37;8.93;;;2.30;;
20101;SDS011;10210;52.284;9.892;2023-12-20T01:51:03;10.30;;;2.30;;
20101;SDS011;10210;52.284;9.892;2023-12-20T01:53:30;8.57;;;2.00;;
20101;SDS011;10210;52.284;9.892;2023-12-20T01:55:57;8.97;;;1.90;;
20101;SDS011;10210;52.284;9.892;2023-12-20T01:58:24;12.93;;;2.73;;
20101;SDS011;10210;52.284;9.892;2023-12-20T02:00:52;12.93;;;2.10;;
20101;SDS011;10210;52.284;9.892;2023-12-20T02:03:19;12.30;;;2.57;;
20101;SDS011;10210;52.284;9.892;2023-12-20T02:05:46;13.27;;;2.53;;
20101;SDS011;10210;52.284;9.892;2023-12-20T02:08:13;12.90;;;2.40;;
20101;SDS011;10210;52.284;9.892;2023-12-20T02:10:38;10.20;;;2.10;;
20101;SDS011;10210;52.284;9.892;2023-12-20T02:13:05;11.53;;;2.70;;
20101;SDS011;10210;52.284;9.892;2023-12-20T02:15:31;10.07;;;2.50;;
20101;SDS011;10210;52.284;9.892;2023-12-20T02:17:57;10.70;;;2.10;;
20101;SDS011;10210;52.284;9.892;2023-12-20T02:20:22;12.47;;;2.40;;
20101;SDS011;10210;52.284;9.892;2023-12-20T02:22:48;11.70;;;2.30;;
20101;SDS011;10210;52.284;9.892;2023-12-20T02:25:14;10.70;;;2.07;;
20101;SDS011;10210;52.284;9.892;2023-12-20T02:27:39;12.20;;;2.50;;
20101;SDS011;10210;52.284;9.892;2023-12-20T02:30:06;13.30;;;2.30;;
20101;SDS011;10210;52.284;9.892;2023-12-20T02:32:32;8.13;;;1.67;;
20101;SDS011;10210;52.284;9.892;2023-12-20T02:34:57;11.47;;;2.20;;
20101;SDS011;10210;52.284;9.892;2023-12-20T02:37:23;10.90;;;2.00;;
20101;SDS011;10210;52.284;9.892;2023-12-20T02:39:49;7.43;;;1.70;;
20101;SDS011;10210;52.284;9.892;2023-12-20T02:42:15;10.70;;;2.03;;
20101;SDS011;10210;52.284;9.892;2023-12-20T02:44:40;10.47;;;2.00;;
20101;SDS011;10210;52.284;9.892;2023-12-20T02:47:06;10.87;;;2.10;;
20101;SDS011;10210;52.284;9.892;2023-12-20T02:49:32;11.27;;;1.60;;
20101;SDS011;10210;52.284;9.892;2023-12-20T02:51:57;8.37;;;1.97;;
20101;SDS011;10210;52.284;9.892;2023-12-20T02:54:23;9.53;;;2.03;;
20101;SDS011;10210;52.284;9.892;2023-12-20T02:56:48;8.77;;;1.80;;
20101;SDS011;10210;52.284;9.892;2023-12-20T02:59:14;8.57;;;1.90;;
20101;SDS011;10210;52.284;9.892;2023-12-20T03:01:43;7.83;;;1.53;;
20101;SDS011;10210;52.284;9.892;2023-12-20T03:04:11;9.57;;;2.00;;
20101;SDS011;10210;52.284;9.892;2023-12-20T03:06:37;8.50;;;1.60;;
20101;SDS011;10210;52.284;9.892;2023-12-20T03:09:03;9.67;;;1.90;;
20101;SDS011;10210;52.284;9.892;2023-12-20T03:11:29;11.40;;;2.70;;
20101;SDS011;10210;52.284;9.892;2023-12-20T03:13:55;11.00;;;2.10;;
20101;SDS011;10210;52.284;9.892;2023-12-20T03:16:22;8.17;;;1.47;;
20101;SDS011;10210;52.284;9.892;2023-12-20T03:18:48;8.27;;;1.57;;
20101;SDS011;10210;52.284;9.892;2023-12-20T03:21:14;10.17;;;1.70;;
20101;SDS011;10210;52.284;9.892;2023-12-20T03:23:40;10.07;;;2.00;;
20101;SDS011;10210;52.284;9.892;2023-12-20T03:26:07;6.60;;;1.57;;
20101;SDS011;10210;52.284;9.892;2023-12-20T03:28:33;7.70;;;2.23;;
20101;SDS011;10210;52.284;9.892;2023-12-20T03:30:59;8.47;;;1.60;;
20101;SDS011;10210;52.284;9.892;2023-12-20T03:33:25;12.37;;;1.70;;
20101;SDS011;10210;52.284;9.892;2023-12-20T03:35:52;7.63;;;1.70;;
20101;SDS011;10210;52.284;9.892;2023-12-20T03:38:18;6.83;;;1.60;;
20101;SDS011;10210;52.284;9.892;2023-12-20T03:40:44;11.20;;;1.80;;
20101;SDS011;10210;52.284;9.892;2023-12-20T03:43:09;11.23;;;1.63;;
20101;SDS011;10210;52.284;9.892;2023-12-20T03:45:35;9.63;;;1.90;;
20101;SDS011;10210;52.284;9.892;2023-12-20T03:48:01;8.57;;;1.90;;
20101;SDS011;10210;52.284;9.892;2023-12-20T03:50:27;7.67;;;1.50;;
20101;SDS011;10210;52.284;9.892;2023-12-20T03:52:52;12.77;;;1.70;;
20101;SDS011;10210;52.284;9.892;2023-12-20T03:55:18;7.60;;;1.47;;
20101;SDS011;10210;52.284;9.892;2023-12-20T03:57:44;10.80;;;2.07;;
20101;SDS011;10210;52.284;9.892;2023-12-20T04:00:10;7.87;;;1.77;;
20101;SDS011;10210;52.284;9.892;2023-12-20T04:02:37;5.37;;;1.47;;
20101;SDS011;10210;52.284;9.892;2023-12-20T04:05:04;10.17;;;1.90;;
20101;SDS011;10210;52.284;9.892;2023-12-20T04:07:31;11.03;;;1.80;;
20101;SDS011;10210;52.284;9.892;2023-12-20T04:09:57;7.27;;;1.70;;
20101;SDS011;10210;52.284;9.892;2023-12-20T04:12:23;8.10;;;1.80;;
20101;SDS011;10210;52.284;9.892;2023-12-20T04:14:50;9.43;;;2.00;;
20101;SDS011;10210;52.284;9.892;2023-12-20T04:17:15;7.50;;;1.87;;
20101;SDS011;10210;52.284;9.892;2023-12-20T04:19:41;10.10;;;2.10;;
20101;SDS011;10210;52.284;9.892;2023-12-20T04:22:07;10.60;;;2.23;;
20101;SDS011;10210;52.284;9.892;2023-12-20T04:24:33;11.23;;;2.20;;
20101;SDS011;10210;52.284;9.892;2023-12-20T04:26:59;12.67;;;2.00;;
20101;SDS011;10210;52.284;9.892;2023-12-20T04:29:27;10.67;;;2.00;;
20101;SDS011;10210;52.284;9.892;2023-12-20T04:31:52;10.10;;;2.30;;
20101;SDS011;10210;52.284;9.892;2023-12-20T04:34:18;8.87;;;2.03;;
20101;SDS011;10210;52.284;9.892;2023-12-20T04:36:44;12.37;;;2.00;;
20101;SDS011;10210;52.284;9.892;2023-12-20T04:39:13;10.53;;;2.43;;
20101;SDS011;10210;52.284;9.892;2023-12-20T04:41:40;9.73;;;2.20;;
20101;SDS011;10210;52.284;9.892;2023-12-20T04:44:05;9.50;;;2.20;;
20101;SDS011;10210;52.284;9.892;2023-12-20T04:46:32;10.77;;;2.40;;
20101;SDS011;10210;52.284;9.892;2023-12-20T04:48:57;15.00;;;2.60;;
20101;SDS011;10210;52.284;9.892;2023-12-20T04:51:23;11.77;;;2.23;;
20101;SDS011;10210;52.284;9.892;2023-12-20T04:53:49;12.03;;;2.13;;
20101;SDS011;10210;52.284;9.892;2023-12-20T04:56:14;10.13;;;2.70;;
20101;SDS011;10210;52.284;9.892;2023-12-20T04:58:40;8.57;;;2.13;;
20101;SDS011;10210;52.284;9.892;2023-12-20T05:01:08;11.27;;;2.60;;
20101;SDS011;10210;52.284;9.892;2023-12-20T05:03:34;11.07;;;2.57;;
20101;SDS011;10210;52.284;9.892;2023-12-20T05:06:00;13.90;;;2.40;;
20101;SDS011;10210;52.284;9.892;2023-12-20T05:08:26;10.07;;;2.87;;
20101;SDS011;10210;52.284;9.892;2023-12-20T05:10:53;9.63;;;2.40;;
20101;SDS011;10210;52.284;9.892;2023-12-20T05:13:20;11.63;;;2.17;;
20101;SDS011;10210;52.284;9.892;2023-12-20T05:15:46;10.63;;;2.70;;
20101;SDS011;10210;52.284;9.892;2023-12-20T05:18:12;13.33;;;3.10;;
20101;SDS011;10210;52.284;9.892;2023-12-20T05:20:38;12.07;;;2.53;;
20101;SDS011;10210;52.284;9.892;2023-12-20T05:23:04;9.80;;;2.30;;
20101;SDS011;10210;52.284;9.892;2023-12-20T05:25:30;11.17;;;2.70;;
20101;SDS011;10210;52.284;9.892;2023-12-20T05:27:56;11.70;;;2.30;;
20101;SDS011;10210;52.284;9.892;2023-12-20T05:30:21;12.07;;;2.60;;
20101;SDS011;10210;52.284;9.892;2023-12-20T05:32:47;12.97;;;2.73;;
20101;SDS011;10210;52.284;9.892;2023-12-20T05:35:13;16.10;;;3.20;;
20101;SDS011;10210;52.284;9.892;2023-12-20T05:37:40;12.13;;;2.90;;
20101;SDS011;10210;52.284;9.892;2023-12-20T05:40:06;16.63;;;2.60;;
20101;SDS011;10210;52.284;9.892;2023-12-20T05:42:35;16.33;;;3.13;;
20101;SDS011;10210;52.284;9.892;2023-12-20T05:45:02;14.50;;;2.87;;
20101;SDS011;10210;52.284;9.892;2023-12-20T05:47:29;15.80;;;2.93;;
20101;SDS011;10210;52.284;9.892;2023-12-20T05:49:55;15.30;;;3.13;;
20101;SDS011;10210;52.284;9.892;2023-12-20T05:52:20;18.30;;;3.73;;
20101;SDS011;10210;52.284;9.892;2023-12-20T05:54:46;14.40;;;2.87;;
20101;SDS011;10210;52.284;9.892;2023-12-20T05:57:12;16.60;;;2.97;;
20101;SDS011;10210;52.284;9.892;2023-12-20T05:59:39;12.87;;;2.80;;
20101;SDS011;10210;52.284;9.892;2023-12-20T06:02:05;14.37;;;2.93;;
20101;SDS011;10210;52.284;9.892;2023-12-20T06:04:31;11.93;;;3.00;;
20101;SDS011;10210;52.284;9.892;2023-12-20T06:06:57;19.07;;;3.03;;
20101;SDS011;10210;52.284;9.892;2023-12-20T06:09:23;15.47;;;2.90;;
20101;SDS011;10210;52.284;9.892;2023-12-20T06:11:49;11.27;;;2.70;;
20101;SDS011;10210;52.284;9.892;2023-12-20T06:14:16;13.40;;;3.20;;
20101;SDS011;10210;52.284;9.892;2023-12-20T06:16:41;15.37;;;2.93;;
20101;SDS011;10210;52.284;9.892;2023-12-20T06:19:07;13.33;;;3.20;;
20101;SDS011;10210;52.284;9.892;2023-12-20T06:21:32;14.77;;;2.90;;
20101;SDS011;10210;52.284;9.892;2023-12-20T06:23:58;15.53;;;3.20;;
20101;SDS011;10210;52.284;9.892;2023-12-20T06:26:24;12.03;;;2.73;;
20101;SDS011;10210;52.284;9.892;2023-12-20T06:28:50;14.13;;;3.13;;
20101;SDS011;10210;52.284;9.892;2023-12-20T06:31:16;13.80;;;3.10;;
20101;SDS011;10210;52.284;9.892;2023-12-20T06:33:42;15.53;;;3.20;;
20101;SDS011;10210;52.284;9.892;2023-12-20T06:36:12;13.87;;;3.20;;
20101;SDS011;10210;52.284;9.892;2023-12-20T06:38:38;14.43;;;3.17;;
20101;SDS011;10210;52.284;9.892;2023-12-20T06:41:04;15.27;;;3.27;;
20101;SDS011;10210;52.284;9.892;2023-12-20T06:43:30;17.20;;;3.03;;
20101;SDS011;10210;52.284;9.892;2023-12-20T06:45:58;12.70;;;3.20;;
20101;SDS011;10210;52.284;9.892;2023-12-20T06:48:28;16.17;;;3.47;;
20101;SDS011;10210;52.284;9.892;2023-12-20T06:50:54;15.37;;;3.57;;
20101;SDS011;10210;52.284;9.892;2023-12-20T06:53:20;14.53;;;3.43;;
20101;SDS011;10210;52.284;9.892;2023-12-20T06:55:46;12.77;;;3.10;;
20101;SDS011;10210;52.284;9.892;2023-12-20T06:58:11;10.90;;;3.23;;
20101;SDS011;10210;52.284;9.892;2023-12-20T07:00:37;15.57;;;3.37;;
20101;SDS011;10210;52.284;9.892;2023-12-20T07:03:03;15.73;;;3.30;;
20101;SDS011;10210;52.284;9.892;2023-12-20T07:05:28;14.93;;;3.27;;
20101;SDS011;10210;52.284;9.892;2023-12-20T07:07:54;13.53;;;3.10;;
20101;SDS011;10210;52.284;9.892;2023-12-20T07:10:20;11.67;;;3.10;;
20101;SDS011;10210;52.284;9.892;2023-12-20T07:12:45;11.90;;;3.20;;
20101;SDS011;10210;52.284;9.892;2023-12-20T07:15:11;18.27;;;3.10;;
20101;SDS011;10210;52.284;9.892;2023-12-20T07:17:37;12.83;;;3.17;;
20101;SDS011;10210;52.284;9.892;2023-12-20T07:20:03;10.50;;;2.90;;
20101;SDS011;10210;52.284;9.892;2023-12-20T07:22:30;14.57;;;3.70;;
20101;SDS011;10210;52.284;9.892;2023-12-20T07:24:57;14.30;;;3.10;;
20101;SDS011;10210;52.284;9.892;2023-12-20T07:27:23;13.60;;;3.70;;
20101;SDS011;10210;52.284;9.892;2023-12-20T07:29:49;15.67;;;2.87;;
20101;SDS011;10210;52.284;9.892;2023-12-20T07:32:15;15.33;;;3.30;;
20101;SDS011;10210;52.284;9.892;2023-12-20T07:34:42;13.43;;;3.27;;
20101;SDS011;10210;52.284;9.892;2023-12-20T07:37:09;13.30;;;3.30;;
20101;SDS011;10210;52.284;9.892;2023-12-20T07:39:37;19.83;;;4.03;;
20101;SDS011;10210;52.284;9.892;2023-12-20T07:42:05;11.37;;;3.10;;
20101;SDS011;10210;52.284;9.892;2023-12-20T07:44:33;20.47;;;3.40;;
20101;SDS011;10210;52.284;9.892;2023-12-20T07:47:02;15.13;;;3.40;;
20101;SDS011;10210;52.284;9.892;2023-12-20T07:49:28;13.67;;;3.60;;
20101;SDS011;10210;52.284;9.892;2023-12-20T07:51:53;16.53;;;3.73;;
20101;SDS011;10210;52.284;9.892;2023-12-20T07:54:19;12.97;;;2.87;;
20101;SDS011;10210;52.284;9.892;2023-12-20T07:56:46;13.90;;;3.60;;
20101;SDS011;10210;52.284;9.892;2023-12-20T07:59:14;13.93;;;2.70;;
20101;SDS011;10210;52.284;9.892;2023-12-20T08:01:39;18.10;;;3.30;;
20101;SDS011;10210;52.284;9.892;2023-12-20T08:04:05;18.07;;;3.60;;
20101;SDS011;10210;52.284;9.892;2023-12-20T08:06:31;17.60;;;3.50;;
20101;SDS011;10210;52.284;9.892;2023-12-20T08:08:56;17.27;;;3.23;;
20101;SDS011;10210;52.284;9.892;2023-12-20T08:11:22;15.53;;;3.93;;
20101;SDS011;10210;52.284;9.892;2023-12-20T08:13:48;18.40;;;3.73;;
20101;SDS011;10210;52.284;9.892;2023-12-20T08:16:13;13.97;;;3.23;;
20101;SDS011;10210;52.284;9.892;2023-12-20T08:18:41;16.13;;;4.57;;
20101;SDS011;10210;52.284;9.892;2023-12-20T08:21:06;15.83;;;3.80;;
20101;SDS011;10210;52.284;9.892;2023-12-20T08:23:33;12.87;;;3.37;;
20101;SDS011;10210;52.284;9.892;2023-12-20T08:26:03;17.43;;;4.17;;
20101;SDS011;10210;52.284;9.892;2023-12-20T08:28:33;13.33;;;3.40;;
20101;SDS011;10210;52.284;9.892;2023-12-20T08:30:59;17.73;;;3.90;;
20101;SDS011;10210;52.284;9.892;2023-12-20T08:33:25;20.13;;;3.93;;
20101;SDS011;10210;52.284;9.892;2023-12-20T08:35:52;18.10;;;3.70;;
20101;SDS011;10210;52.284;9.892;2023-12-20T08:38:18;17.10;;;4.70;;
20101;SDS011;10210;52.284;9.892;2023-12-20T08:40:44;12.87;;;3.67;;
20101;SDS011;10210;52.284;9.892;2023-12-20T08:43:09;15.00;;;3.40;;
20101;SDS011;10210;52.284;9.892;2023-12-20T08:45:35;15.50;;;3.43;;
20101;SDS011;10210;52.284;9.892;2023-12-20T08:48:01;19.87;;;3.80;;
20101;SDS011;10210;52.284;9.892;2023-12-20T08:50:28;13.93;;;3.37;;
20101;SDS011;10210;52.284;9.892;2023-12-20T08:52:54;17.13;;;3.53;;
20101;SDS011;10210;52.284;9.892;2023-12-20T08:55:20;16.87;;;3.47;;
20101;SDS011;10210;52.284;9.892;2023-12-20T08:57:45;14.90;;;3.50;;
20101;SDS011;10210;52.284;9.892;2023-12-20T09:00:13;18.40;;;3.90;;
20101;SDS011;10210;52.284;9.892;2023-12-20T09:02:39;13.53;;;3.40;;
20101;SDS011;10210;52.284;9.892;2023-12-20T09:05:05;17.97;;;3.87;;
20101;SDS011;10210;52.284;9.892;2023-12-20T09:07:31;14.73;;;3.67;;
20101;SDS011;10210;52.284;9.892;2023-12-20T09:09:57;14.83;;;3.60;;
20101;SDS011;10210;52.284;9.892;2023-12-20T09:12:23;17.50;;;3.80;;
20101;SDS011;10210;52.284;9.892;2023-12-20T09:14:50;17.98;;;4.03;;
20101;SDS011;10210;52.284;9.892;2023-12-20T09:17:17;14.83;;;3.60;;
20101;SDS011;10210;52.284;9.892;2023-12-20T09:19:44;13.10;;;3.50;;
20101;SDS011;10210;52.284;9.892;2023-12-20T09:22:10;12.10;;;3.33;;
20101;SDS011;10210;52.284;9.892;2023-12-20T09:24:37;16.80;;;3.73;;
20101;SDS011;10210;52.284;9.892;2023-12-20T09:27:03;14.30;;;3.57;;
20101;SDS011;10210;52.284;9.892;2023-12-20T09:29:30;15.17;;;3.67;;
20101;SDS011;10210;52.284;9.892;2023-12-20T09:31:56;13.60;;;3.40;;
20101;SDS011;10210;52.284;9.892;2023-12-20T09:34:22;13.07;;;3.30;;
20101;SDS011;10210;52.284;9.892;2023-12-20T09:36:50;15.80;;;3.60;;
20101;SDS011;10210;52.284;9.892;2023-12-20T09:39:17;15.60;;;3.80;;
20101;SDS011;10210;52.284;9.892;2023-12-20T09:41:45;15.90;;;3.27;;
20101;SDS011;10210;52.284;9.892;2023-12-20T09:44:28;15.10;;;3.43;;
20101;SDS011;10210;52.284;9.892;2023-12-20T09:46:55;14.30;;;3.93;;
20101;SDS011;10210;52.284;9.892;2023-12-20T09:49:22;11.83;;;3.27;;
20101;SDS011;10210;52.284;9.892;2023-12-20T09:51:48;15.17;;;3.70;;
20101;SDS011;10210;52.284;9.892;2023-12-20T09:54:17;19.87;;;3.77;;
20101;SDS011;10210;52.284;9.892;2023-12-20T09:56:43;14.80;;;3.43;;
20101;SDS011;10210;52.284;9.892;2023-12-20T09:59:10;13.40;;;3.27;;
20101;SDS011;10210;52.284;9.892;2023-12-20T10:01:36;13.67;;;3.70;;
20101;SDS011;10210;52.284;9.892;2023-12-20T10:04:05;16.10;;;3.53;;
20101;SDS011;10210;52.284;9.892;2023-12-20T10:06:43;13.97;;;3.20;;
20101;SDS011;10210;52.284;9.892;2023-12-20T10:09:10;14.37;;;3.10;;
20101;SDS011;10210;52.284;9.892;2023-12-20T10:11:39;15.97;;;2.90;;
20101;SDS011;10210;52.284;9.892;2023-12-20T10:14:06;17.20;;;3.30;;
20101;SDS011;10210;52.284;9.892;2023-12-20T10:16:32;16.47;;;3.10;;
20101;SDS011;10210;52.284;9.892;2023-12-20T10:18:59;12.43;;;2.87;;
20101;SDS011;10210;52.284;9.892;2023-12-20T10:21:26;16.40;;;3.80;;
20101;SDS011;10210;52.284;9.892;2023-12-20T10:23:57;15.07;;;3.27;;
20101;SDS011;10210;52.284;9.892;2023-12-20T10:26:26;15.50;;;3.67;;
20101;SDS011;10210;52.284;9.892;2023-12-20T10:28:53;13.00;;;3.40;;
20101;SDS011;10210;52.284;9.892;2023-12-20T10:34:01;14.87;;;3.60;;
20101;SDS011;10210;52.284;9.892;2023-12-20T10:36:28;16.13;;;3.30;;
20101;SDS011;10210;52.284;9.892;2023-12-20T10:38:58;17.37;;;3.80;;
20101;SDS011;10210;52.284;9.892;2023-12-20T10:41:30;13.90;;;3.83;;
20101;SDS011;10210;52.284;9.892;2023-12-20T10:44:02;16.47;;;3.80;;
20101;SDS011;10210;52.284;9.892;2023-12-20T10:46:33;15.10;;;3.43;;
20101;SDS011;10210;52.284;9.892;2023-12-20T10:49:02;13.53;;;3.80;;
20101;SDS011;10210;52.284;9.892;2023-12-20T10:51:29;15.03;;;3.80;;
20101;SDS011;10210;52.284;9.892;2023-12-20T10:53:58;12.57;;;3.60;;
20101;SDS011;10210;52.284;9.892;2023-12-20T10:56:24;16.47;;;3.87;;
20101;SDS011;10210;52.284;9.892;2023-12-20T10:58:54;17.53;;;4.50;;
20101;SDS011;10210;52.284;9.892;2023-12-20T11:01:24;13.07;;;3.83;;
20101;SDS011;10210;52.284;9.892;2023-12-20T11:03:53;14.80;;;3.67;;
20101;SDS011;10210;52.284;9.892;2023-12-20T11:09:08;14.13;;;3.60;;
20101;SDS011;10210;52.284;9.892;2023-12-20T11:14:39;13.67;;;4.37;;
20101;SDS011;10210;52.284;9.892;2023-12-20T11:17:11;14.40;;;3.90;;
20101;SDS011;10210;52.284;9.892;2023-12-20T11:22:24;10.90;;;3.10;;
20101;SDS011;10210;52.284;9.892;2023-12-20T11:24:52;10.83;;;3.47;;
20101;SDS011;10210;52.284;9.892;2023-12-20T11:27:19;14.50;;;3.60;;
20101;SDS011;10210;52.284;9.892;2023-12-20T11:29:52;13.17;;;3.93;;
20101;SDS011;10210;52.284;9.892;2023-12-20T11:34:57;12.23;;;3.00;;
20101;SDS011;10210;52.284;9.892;2023-12-20T11:37:32;12.37;;;2.93;;
20101;SDS011;10210;52.284;9.892;2023-12-20T11:40:03;11.40;;;3.00;;
20101;SDS011;10210;52.284;9.892;2023-12-20T11:42:39;12.33;;;3.00;;
20101;SDS011;10210;52.284;9.892;2023-12-20T11:45:18;10.53;;;3.00;;
20101;SDS011;10210;52.284;9.892;2023-12-20T11:47:50;8.33;;;2.57;;
20101;SDS011;10210;52.284;9.892;2023-12-20T11:50:18;11.67;;;2.70;;
20101;SDS011;10210;52.284;9.892;2023-12-20T11:52:49;12.67;;;2.73;;
20101;SDS011;10210;52.284;9.892;2023-12-20T11:55:17;11.40;;;2.80;;
20101;SDS011;10210;52.284;9.892;2023-12-20T11:57:44;12.83;;;3.10;;
20101;SDS011;10210;52.284;9.892;2023-12-20T12:00:10;14.77;;;3.50;;
20101;SDS011;10210;52.284;9.892;2023-12-20T12:02:36;12.33;;;3.13;;
20101;SDS011;10210;52.284;9.892;2023-12-20T12:05:02;11.70;;;2.50;;
20101;SDS011;10210;52.284;9.892;2023-12-20T12:07:30;5.73;;;1.73;;
20101;SDS011;10210;52.284;9.892;2023-12-20T12:09:56;8.47;;;1.70;;
20101;SDS011;10210;52.284;9.892;2023-12-20T12:12:23;6.53;;;1.30;;
20101;SDS011;10210;52.284;9.892;2023-12-20T12:14:50;7.30;;;1.43;;
20101;SDS011;10210;52.284;9.892;2023-12-20T12:17:16;6.10;;;1.47;;
20101;SDS011;10210;52.284;9.892;2023-12-20T12:19:42;5.97;;;1.23;;
20101;SDS011;10210;52.284;9.892;2023-12-20T12:22:09;6.47;;;1.20;;
20101;SDS011;10210;52.284;9.892;2023-12-20T12:24:41;4.07;;;1.07;;
20101;SDS011;10210;52.284;9.892;2023-12-20T12:27:09;4.53;;;0.97;;
20101;SDS011;10210;52.284;9.892;2023-12-20T12:29:36;4.83;;;0.93;;
20101;SDS011;10210;52.284;9.892;2023-12-20T12:32:09;3.63;;;1.03;;
20101;SDS011;10210;52.284;9.892;2023-12-20T12:34:37;4.00;;;0.87;;
20101;SDS011;10210;52.284;9.892;2023-12-20T12:37:04;3.77;;;1.10;;
20101;SDS011;10210;52.284;9.892;2023-12-20T12:39:30;3.13;;;0.80;;
20101;SDS011;10210;52.284;9.892;2023-12-20T12:41:56;4.73;;;1.23;;
20101;SDS011;10210;52.284;9.892;2023-12-20T12:44:22;4.23;;;1.20;;
20101;SDS011;10210;52.284;9.892;2023-12-20T12:46:52;4.03;;;1.30;;
20101;SDS011;10210;52.284;9.892;2023-12-20T12:49:18;5.07;;;1.20;;
20101;SDS011;10210;52.284;9.892;2023-12-20T12:51:47;3.17;;;0.77;;
20101;SDS011;10210;52.284;9.892;2023-12-20T12:54:13;4.90;;;1.10;;
20101;SDS011;10210;52.284;9.892;2023-12-20T12:56:41;4.63;;;1.10;;
20101;SDS011;10210;52.284;9.892;2023-12-20T12:59:07;5.90;;;1.20;;
20101;SDS011;10210;52.284;9.892;2023-12-20T13:01:34;3.70;;;1.30;;
20101;SDS011;10210;52.284;9.892;2023-12-20T13:03:59;3.80;;;1.20;;
20101;SDS011;10210;52.284;9.892;2023-12-20T13:06:28;3.23;;;0.87;;
20101;SDS011;10210;52.284;9.892;2023-12-20T13:08:54;7.40;;;1.13;;
20101;SDS011;10210;52.284;9.892;2023-12-20T13:11:20;7.80;;;1.50;;
20101;SDS011;10210;52.284;9.892;2023-12-20T13:13:46;4.43;;;1.20;;
20101;SDS011;10210;52.284;9.892;2023-12-20T13:16:11;6.23;;;1.23;;
20101;SDS011;10210;52.284;9.892;2023-12-20T13:18:38;4.53;;;1.20;;
20101;SDS011;10210;52.284;9.892;2023-12-20T13:21:07;6.33;;;1.30;;
20101;SDS011;10210;52.284;9.892;2023-12-20T13:23:34;5.10;;;1.10;;
20101;SDS011;10210;52.284;9.892;2023-12-20T13:25:59;3.30;;;1.10;;
20101;SDS011;10210;52.284;9.892;2023-12-20T13:28:25;5.60;;;1.20;;
20101;SDS011;10210;52.284;9.892;2023-12-20T13:30:52;5.73;;;1.27;;
20101;SDS011;10210;52.284;9.892;2023-12-20T13:33:18;7.23;;;1.30;;
20101;SDS011;10210;52.284;9.892;2023-12-20T13:35:44;4.60;;;1.17;;
20101;SDS011;10210;52.284;9.892;2023-12-20T13:38:09;6.70;;;1.10;;
20101;SDS011;10210;52.284;9.892;2023-12-20T13:40:37;7.93;;;1.37;;
20101;SDS011;10210;52.284;9.892;2023-12-20T13:43:03;6.30;;;1.30;;
20101;SDS011;10210;52.284;9.892;2023-12-20T13:45:29;2.03;;;1.10;;
20101;SDS011;10210;52.284;9.892;2023-12-20T13:47:54;5.50;;;1.17;;
20101;SDS011;10210;52.284;9.892;2023-12-20T13:50:21;4.27;;;1.40;;
20101;SDS011;10210;52.284;9.892;2023-12-20T13:52:47;4.93;;;1.40;;
20101;SDS011;10210;52.284;9.892;2023-12-20T13:55:13;5.93;;;1.10;;
20101;SDS011;10210;52.284;9.892;2023-12-20T13:57:38;3.97;;;1.20;;
20101;SDS011;10210;52.284;9.892;2023-12-20T14:00:07;4.67;;;1.30;;
20101;SDS011;10210;52.284;9.892;2023-12-20T14:02:39;5.43;;;1.10;;
20101;SDS011;10210;52.284;9.892;2023-12-20T14:05:06;5.43;;;1.40;;
20101;SDS011;10210;52.284;9.892;2023-12-20T14:07:32;7.47;;;1.40;;
20101;SDS011;10210;52.284;9.892;2023-12-20T14:09:58;7.50;;;1.43;;
20101;SDS011;10210;52.284;9.892;2023-12-20T14:12:24;3.77;;;1.60;;
20101;SDS011;10210;52.284;9.892;2023-12-20T14:14:50;8.20;;;1.50;;
20101;SDS011;10210;52.284;9.892;2023-12-20T14:17:16;7.90;;;1.30;;
20101;SDS011;10210;52.284;9.892;2023-12-20T14:19:43;6.93;;;1.40;;
20101;SDS011;10210;52.284;9.892;2023-12-20T14:22:12;9.63;;;1.70;;
20101;SDS011;10210;52.284;9.892;2023-12-20T14:24:41;6.73;;;1.30;;
20101;SDS011;10210;52.284;9.892;2023-12-20T14:27:07;6.83;;;1.47;;
20101;SDS011;10210;52.284;9.892;2023-12-20T14:29:34;6.43;;;1.40;;
20101;SDS011;10210;52.284;9.892;2023-12-20T14:32:00;6.90;;;1.50;;
20101;SDS011;10210;52.284;9.892;2023-12-20T14:34:28;6.43;;;1.70;;
20101;SDS011;10210;52.284;9.892;2023-12-20T14:36:54;8.80;;;1.70;;
20101;SDS011;10210;52.284;9.892;2023-12-20T14:39:20;7.97;;;2.20;;
20101;SDS011;10210;52.284;9.892;2023-12-20T14:41:46;8.37;;;1.87;;
20101;SDS011;10210;52.284;9.892;2023-12-20T14:44:12;5.97;;;1.77;;
20101;SDS011;10210;52.284;9.892;2023-12-20T14:46:37;9.70;;;1.73;;
20101;SDS011;10210;52.284;9.892;2023-12-20T14:49:05;8.77;;;1.70;;